createdAt,value
2022-08-19T00:02:01.095Z,30.67
2022-08-19T00:04:32.645Z,30.73
2022-08-19T00:07:01.863Z,31.93
2022-08-19T00:09:30.815Z,33.33
2022-08-19T00:12:00.979Z,32.30
2022-08-19T00:14:33.038Z,32.40
2022-08-19T00:17:04.436Z,33.63
2022-08-19T00:19:33.807Z,33.10
2022-08-19T00:22:03.445Z,33.10
2022-08-19T00:24:32.221Z,34.00
2022-08-19T00:27:25.260Z,34.10
2022-08-19T00:29:52.554Z,34.73
2022-08-19T00:32:23.105Z,32.30
2022-08-19T00:34:54.450Z,33.50
2022-08-19T00:37:24.246Z,32.47
2022-08-19T00:39:53.627Z,30.57
2022-08-19T00:42:24.051Z,31.83
2022-08-19T00:44:53.039Z,33.70
2022-08-19T00:47:22.988Z,32.53
2022-08-19T00:49:54.903Z,33.23
2022-08-19T00:52:26.334Z,32.20
2022-08-19T00:54:55.237Z,33.47
2022-08-19T00:57:28.319Z,32.17
2022-08-19T01:00:01.500Z,34.17
2022-08-19T01:02:33.965Z,33.13
2022-08-19T01:05:05.215Z,35.60
2022-08-19T01:07:37.912Z,36.93
2022-08-19T01:10:09.260Z,35.77
2022-08-19T01:12:38.072Z,39.63
2022-08-19T01:15:08.122Z,36.03
2022-08-19T01:17:39.083Z,37.70
2022-08-19T01:20:10.426Z,35.40
2022-08-19T01:22:44.473Z,35.37
2022-08-19T01:25:15.157Z,39.80
2022-08-19T01:27:45.554Z,39.07
2022-08-19T01:30:16.252Z,41.00
2022-08-19T01:32:44.754Z,41.13
2022-08-19T01:35:14.715Z,40.87
2022-08-19T01:37:50.696Z,41.57
2022-08-19T01:40:20.497Z,41.30
2022-08-19T01:42:49.527Z,41.07
2022-08-19T01:45:18.224Z,42.67
2022-08-19T01:48:01.218Z,38.27
2022-08-19T01:50:32.112Z,43.83
2022-08-19T01:53:06.810Z,43.07
2022-08-19T01:55:40.662Z,43.77
2022-08-19T01:58:12.508Z,44.27
2022-08-19T02:00:41.314Z,44.20
2022-08-19T02:03:10.309Z,46.03
2022-08-19T02:05:38.947Z,46.17
2022-08-19T02:08:09.416Z,47.13
2022-08-19T02:10:41.809Z,45.60
2022-08-19T02:13:10.375Z,47.57
2022-08-19T02:15:39.924Z,44.83
2022-08-19T02:18:09.488Z,48.07
2022-08-19T02:20:38.885Z,49.37
2022-08-19T02:23:13.837Z,47.90
2022-08-19T02:25:46.690Z,46.90
2022-08-19T02:28:18.591Z,47.50
2022-08-19T02:30:48.896Z,46.77
2022-08-19T02:33:18.138Z,49.73
2022-08-19T02:35:48.066Z,46.03
2022-08-19T02:38:30.349Z,48.27
2022-08-19T02:41:01.554Z,47.93
2022-08-19T02:43:34.542Z,48.47
2022-08-19T02:46:03.733Z,46.83
2022-08-19T02:48:33.914Z,50.10
2022-08-19T02:51:02.845Z,45.83
2022-08-19T02:53:33.051Z,46.30
2022-08-19T02:56:01.924Z,46.77
2022-08-19T02:58:30.571Z,48.77
2022-08-19T03:01:00.291Z,49.17
2022-08-19T03:03:29.144Z,44.97
2022-08-19T03:06:08.885Z,45.77
2022-08-19T03:08:41.531Z,45.20
2022-08-19T03:11:15.745Z,47.87
2022-08-19T03:13:44.924Z,49.07
2022-08-19T03:16:14.691Z,47.20
2022-08-19T03:18:43.515Z,50.83
2022-08-19T03:21:18.571Z,50.97
2022-08-19T03:23:49.263Z,47.47
2022-08-19T03:26:17.741Z,51.60
2022-08-19T03:28:57.750Z,49.83
2022-08-19T03:31:43.283Z,58.80
2022-08-19T03:34:15.703Z,51.43
2022-08-19T03:36:44.203Z,46.80
2022-08-19T03:39:14.795Z,59.93
2022-08-19T03:41:48.511Z,50.60
2022-08-19T03:44:22.158Z,55.40
2022-08-19T03:46:52.553Z,57.17
2022-08-19T03:49:27.232Z,56.50
2022-08-19T03:52:01.827Z,59.57
2022-08-19T03:54:32.121Z,55.97
2022-08-19T03:57:00.778Z,59.37
2022-08-19T03:59:31.733Z,63.70
2022-08-19T04:02:02.742Z,56.37
2022-08-19T04:04:31.997Z,58.70
2022-08-19T04:07:00.807Z,69.97
2022-08-19T04:09:29.400Z,60.50
2022-08-19T04:12:00.509Z,57.10
2022-08-19T04:14:31.557Z,55.30
2022-08-19T04:17:01.041Z,62.60
2022-08-19T04:19:31.881Z,67.10
2022-08-19T04:22:00.838Z,69.03
2022-08-19T04:24:29.640Z,70.40
2022-08-19T04:27:01.567Z,68.87
2022-08-19T04:29:30.610Z,70.30
2022-08-19T04:31:59.968Z,64.97
2022-08-19T04:35:02.802Z,73.90
2022-08-19T04:37:34.647Z,73.90
2022-08-19T04:40:24.380Z,65.80
2022-08-19T04:42:55.076Z,70.53
2022-08-19T04:45:24.083Z,67.37
2022-08-19T04:48:27.337Z,75.47
2022-08-19T04:50:47.314Z,71.93
2022-08-19T04:53:16.246Z,64.63
2022-08-19T04:55:45.152Z,63.17
2022-08-19T04:58:15.278Z,72.23
2022-08-19T05:00:44.740Z,71.07
2022-08-19T05:03:14.503Z,73.50
2022-08-19T05:05:44.838Z,69.03
2022-08-19T05:08:15.303Z,69.37
2022-08-19T05:10:44.104Z,68.87
2022-08-19T05:13:12.857Z,66.07
2022-08-19T05:15:43.513Z,72.67
2022-08-19T05:18:29.896Z,64.47
2022-08-19T05:21:17.788Z,63.70
2022-08-19T05:23:46.406Z,61.53
2022-08-19T05:26:15.116Z,56.33
2022-08-19T05:28:43.771Z,55.13
2022-08-19T05:31:13.831Z,57.37
2022-08-19T05:33:42.885Z,55.07
2022-08-19T05:36:12.387Z,55.63
2022-08-19T05:38:41.533Z,57.57
2022-08-19T05:41:11.148Z,56.87
2022-08-19T05:43:40.935Z,69.87
2022-08-19T05:46:10.158Z,51.73
2022-08-19T05:48:41.018Z,50.77
2022-08-19T05:51:10.456Z,50.23
2022-08-19T05:53:39.626Z,55.80
2022-08-19T05:56:09.279Z,48.53
2022-08-19T05:58:39.132Z,61.00
2022-08-19T06:01:12.891Z,60.97
2022-08-19T06:03:43.531Z,56.87
2022-08-19T06:06:14.404Z,55.17
2022-08-19T06:08:43.921Z,53.77
2022-08-19T06:11:21.613Z,53.57
2022-08-19T06:13:57.261Z,54.27
2022-08-19T06:16:29.418Z,50.63
2022-08-19T06:19:01.857Z,56.70
2022-08-19T06:21:31.516Z,56.27
2022-08-19T06:24:01.376Z,53.20
2022-08-19T06:26:30.132Z,55.90
2022-08-19T06:28:58.945Z,50.20
2022-08-19T06:31:29.216Z,54.27
2022-08-19T06:33:59.634Z,49.03
2022-08-19T06:36:32.927Z,53.90
2022-08-19T06:39:03.095Z,67.43
2022-08-19T06:41:32.075Z,63.67
2022-08-19T06:44:00.669Z,53.03
2022-08-19T06:46:29.740Z,50.43
2022-08-19T06:49:05.614Z,59.57
2022-08-19T06:51:35.527Z,59.30
2022-08-19T06:54:19.509Z,58.83
2022-08-19T06:56:48.839Z,54.87
2022-08-19T06:59:21.089Z,57.50
2022-08-19T07:01:51.819Z,58.23
2022-08-19T07:04:23.995Z,58.50
2022-08-19T07:06:58.202Z,50.93
2022-08-19T07:09:28.318Z,55.30
2022-08-19T07:11:59.301Z,52.87
2022-08-19T07:14:30.012Z,56.80
2022-08-19T07:16:59.759Z,51.73
2022-08-19T07:19:31.131Z,51.87
2022-08-19T07:22:03.230Z,54.87
2022-08-19T07:24:33.716Z,52.80
2022-08-19T07:27:04.402Z,58.47
2022-08-19T07:29:43.874Z,52.20
2022-08-19T07:32:13.510Z,51.23
2022-08-19T07:34:43.662Z,52.10
2022-08-19T07:37:12.499Z,52.20
2022-08-19T07:39:41.947Z,54.10
2022-08-19T07:42:13.351Z,51.20
2022-08-19T07:44:50.178Z,49.20
2022-08-19T07:47:58.507Z,54.70
2022-08-19T07:50:13.783Z,51.70
2022-08-19T07:52:48.718Z,51.63
2022-08-19T07:55:41.420Z,48.63
2022-08-19T07:58:07.473Z,51.07
2022-08-19T08:00:37.049Z,49.13
2022-08-19T08:03:05.840Z,50.13
2022-08-19T08:05:53.466Z,48.87
2022-08-19T08:08:44.430Z,54.67
2022-08-19T08:11:19.983Z,45.57
2022-08-19T08:14:01.148Z,46.27
2022-08-19T08:16:33.583Z,49.00
2022-08-19T08:19:03.640Z,49.40
2022-08-19T08:21:37.715Z,50.23
2022-08-19T08:24:06.491Z,48.30
2022-08-19T08:26:35.318Z,46.10
2022-08-19T08:29:12.713Z,46.40
2022-08-19T08:31:42.992Z,45.27
2022-08-19T08:34:12.633Z,42.20
2022-08-19T08:36:46.269Z,40.43
2022-08-19T08:39:17.046Z,39.03
2022-08-19T08:41:53.765Z,38.70
2022-08-19T08:44:25.968Z,46.37
2022-08-19T08:46:58.059Z,39.40
2022-08-19T08:49:31.867Z,43.27
2022-08-19T08:52:06.485Z,42.10
2022-08-19T08:54:38.354Z,41.53
2022-08-19T08:57:12.362Z,43.20
2022-08-19T08:59:43.430Z,44.67
2022-08-19T09:02:12.148Z,39.83
2022-08-19T09:04:41.271Z,46.47
2022-08-19T09:07:35.048Z,43.77
2022-08-19T09:10:10.100Z,43.70
2022-08-19T09:12:47.455Z,46.07
2022-08-19T09:15:18.656Z,45.80
2022-08-19T09:17:50.231Z,42.37
2022-08-19T09:20:22.995Z,42.87
2022-08-19T09:22:53.162Z,45.70
2022-08-19T09:25:24.729Z,39.67
2022-08-19T09:28:02.637Z,47.00
2022-08-19T09:30:35.183Z,43.53
2022-08-19T09:33:03.764Z,41.83
2022-08-19T09:35:33.041Z,42.43
2022-08-19T09:38:20.423Z,38.87
2022-08-19T09:40:51.064Z,41.17
2022-08-19T09:43:29.062Z,39.10
2022-08-19T09:46:02.376Z,41.77
2022-08-19T09:48:31.248Z,40.13
2022-08-19T09:51:05.556Z,36.27
2022-08-19T09:53:36.271Z,35.47
2022-08-19T09:56:08.306Z,36.73
2022-08-19T09:58:38.666Z,34.97
2022-08-19T10:01:08.724Z,32.53
2022-08-19T10:03:39.028Z,33.13
2022-08-19T10:06:14.685Z,31.87
2022-08-19T10:08:50.070Z,31.93
2022-08-19T10:11:28.651Z,32.60
2022-08-19T10:14:07.170Z,31.60
2022-08-19T10:16:37.201Z,33.27
2022-08-19T10:19:08.883Z,32.83
2022-08-19T10:21:38.010Z,35.00
2022-08-19T10:24:10.697Z,34.53
2022-08-19T10:26:43.089Z,33.17
2022-08-19T10:29:13.082Z,33.70
2022-08-19T10:32:02.963Z,35.63
2022-08-19T10:34:33.216Z,33.97
2022-08-19T10:37:02.669Z,32.90
2022-08-19T10:39:43.126Z,34.40
2022-08-19T10:42:14.441Z,33.73
2022-08-19T10:44:43.990Z,34.23
2022-08-19T10:47:17.491Z,34.57
2022-08-19T10:50:12.391Z,33.37
2022-08-19T10:52:49.226Z,31.57
2022-08-19T10:55:40.084Z,31.77
2022-08-19T10:58:14.087Z,33.00
2022-08-19T11:00:43.493Z,32.47
2022-08-19T11:03:12.837Z,30.50
2022-08-19T11:05:42.278Z,33.80
2022-08-19T11:08:22.285Z,30.60
2022-08-19T11:11:00.197Z,31.53
2022-08-19T11:13:29.633Z,32.40
2022-08-19T11:16:06.723Z,33.17
2022-08-19T11:18:38.387Z,31.90
2022-08-19T11:21:12.745Z,33.03
2022-08-19T11:23:41.897Z,32.13
2022-08-19T11:26:12.677Z,32.43
2022-08-19T11:28:41.928Z,28.10
2022-08-19T11:31:13.846Z,29.73
2022-08-19T11:33:42.685Z,30.63
2022-08-19T11:36:17.080Z,30.53
2022-08-19T11:38:46.441Z,30.63
2022-08-19T11:41:17.614Z,32.43
2022-08-19T11:43:46.467Z,30.20
2022-08-19T11:46:17.243Z,30.77
2022-08-19T11:48:46.747Z,31.83
2022-08-19T11:51:18.349Z,31.97
2022-08-19T11:53:48.000Z,31.13
2022-08-19T11:56:17.896Z,32.73
2022-08-19T11:58:46.798Z,33.00
2022-08-19T12:01:17.279Z,32.33
2022-08-19T12:03:47.082Z,32.33
2022-08-19T12:06:19.182Z,33.03
2022-08-19T12:08:48.579Z,34.20
2022-08-19T12:11:18.386Z,34.97
2022-08-19T12:13:47.229Z,32.77
2022-08-19T12:16:18.167Z,33.03
2022-08-19T12:18:47.561Z,30.90
2022-08-19T12:21:17.137Z,34.77
2022-08-19T12:23:47.435Z,31.57
2022-08-19T12:26:17.563Z,32.57
2022-08-19T12:28:47.143Z,33.53
2022-08-19T12:31:16.053Z,32.77
2022-08-19T12:33:45.111Z,31.27
2022-08-19T12:36:16.541Z,31.60
2022-08-19T12:38:45.657Z,30.80
2022-08-19T12:41:18.798Z,30.77
2022-08-19T12:43:50.208Z,31.17
2022-08-19T12:46:20.493Z,31.30
2022-08-19T12:48:55.213Z,29.93
2022-08-19T12:51:24.644Z,33.27
2022-08-19T12:53:52.978Z,30.03
2022-08-19T12:56:23.387Z,29.63
2022-08-19T12:58:53.734Z,29.87
2022-08-19T13:01:23.369Z,29.50
2022-08-19T13:03:53.685Z,29.47
2022-08-19T13:06:22.593Z,29.20
2022-08-19T13:08:51.180Z,27.70
2022-08-19T13:11:25.327Z,29.80
2022-08-19T13:13:57.343Z,26.63
2022-08-19T13:16:27.468Z,27.70
2022-08-19T13:18:57.772Z,27.43
2022-08-19T13:21:28.417Z,25.03
2022-08-19T13:23:57.227Z,29.63
2022-08-19T13:26:25.848Z,26.90
2022-08-19T13:29:13.019Z,26.17
2022-08-19T13:32:00.826Z,24.30
2022-08-19T13:34:32.327Z,24.43
2022-08-19T13:37:03.969Z,23.47
2022-08-19T13:39:33.829Z,25.03
2022-08-19T13:42:03.118Z,25.47
2022-08-19T13:44:33.508Z,23.00
2022-08-19T13:47:08.222Z,23.57
2022-08-19T13:49:38.120Z,24.23
2022-08-19T13:52:07.362Z,24.67
2022-08-19T13:54:36.057Z,25.27
2022-08-19T13:57:05.071Z,26.27
2022-08-19T13:59:35.266Z,25.73
2022-08-19T14:02:06.668Z,25.73
2022-08-19T14:04:35.209Z,23.73
2022-08-19T14:07:04.532Z,28.90
2022-08-19T14:09:33.272Z,23.80
2022-08-19T14:12:01.771Z,25.40
2022-08-19T14:14:30.678Z,26.40
2022-08-19T14:17:00.819Z,26.77
2022-08-19T14:19:30.129Z,25.40
2022-08-19T14:21:59.723Z,25.43
2022-08-19T14:24:28.293Z,29.10
2022-08-19T14:26:57.704Z,28.50
2022-08-19T14:29:26.108Z,26.70
2022-08-19T14:31:54.825Z,28.33
2022-08-19T14:34:25.967Z,28.10
2022-08-19T14:36:54.712Z,26.47
2022-08-19T14:39:23.420Z,26.60
2022-08-19T14:41:51.975Z,30.70
2022-08-19T14:44:20.594Z,31.57
2022-08-19T14:46:49.841Z,30.93
2022-08-19T14:49:19.682Z,30.10
2022-08-19T14:51:49.699Z,30.00
2022-08-19T14:54:18.353Z,32.13
2022-08-19T14:56:47.052Z,32.57
2022-08-19T14:59:15.508Z,33.87
2022-08-19T15:01:44.320Z,33.80
2022-08-19T15:04:13.364Z,35.27
2022-08-19T15:06:43.313Z,41.03
2022-08-19T15:09:13.705Z,40.07
2022-08-19T15:11:42.333Z,40.67
2022-08-19T15:14:11.321Z,40.27
2022-08-19T15:16:42.748Z,41.50
2022-08-19T15:19:12.880Z,46.87
2022-08-19T15:21:41.519Z,38.70
2022-08-19T15:24:10.339Z,42.77
2022-08-19T15:26:40.966Z,46.57
2022-08-19T15:29:09.692Z,46.13
2022-08-19T15:31:38.903Z,44.77
2022-08-19T15:34:08.154Z,51.73
2022-08-19T15:36:37.267Z,56.27
2022-08-19T15:39:07.335Z,55.93
2022-08-19T15:41:36.969Z,58.53
2022-08-19T15:44:10.245Z,53.63
2022-08-19T15:46:40.350Z,61.13
2022-08-19T15:49:09.586Z,64.10
2022-08-19T15:51:39.778Z,60.13
2022-08-19T15:54:11.237Z,64.63
2022-08-19T15:56:58.618Z,79.50
2022-08-19T15:59:47.762Z,68.03
2022-08-19T16:02:34.999Z,84.67
2022-08-19T16:05:26.966Z,65.47
2022-08-19T16:07:56.406Z,64.57
2022-08-19T16:10:27.049Z,74.10
2022-08-19T16:12:57.270Z,74.53
2022-08-19T16:15:28.793Z,75.33
2022-08-19T16:17:58.183Z,70.50
2022-08-19T16:20:28.114Z,66.63
2022-08-19T16:22:58.747Z,58.13
2022-08-19T16:25:29.225Z,67.97
2022-08-19T16:28:08.023Z,61.33
2022-08-19T16:30:39.925Z,66.57
2022-08-19T16:33:09.381Z,69.67
2022-08-19T16:35:38.671Z,75.30
2022-08-19T16:38:08.265Z,78.60
2022-08-19T16:40:37.176Z,81.83
2022-08-19T16:43:06.518Z,87.67
2022-08-19T16:45:35.252Z,86.23
2022-08-19T16:48:06.202Z,74.50
2022-08-19T16:50:48.673Z,82.80
2022-08-19T16:53:19.256Z,95.63
2022-08-19T16:55:51.335Z,93.53
2022-08-19T16:58:28.166Z,105.63
2022-08-19T17:01:04.000Z,83.30
2022-08-19T17:03:36.167Z,77.03
2022-08-19T17:06:18.457Z,67.23
2022-08-19T17:08:49.672Z,72.00
2022-08-19T17:11:19.677Z,71.00
2022-08-19T17:13:50.430Z,66.07
2022-08-19T17:16:22.005Z,71.10
2022-08-19T17:18:52.482Z,74.83
2022-08-19T17:21:21.354Z,55.40
2022-08-19T17:23:50.520Z,65.90
2022-08-19T17:26:19.604Z,56.33
2022-08-19T17:28:49.816Z,63.23
2022-08-19T17:31:19.498Z,55.83
2022-08-19T17:33:48.218Z,58.67
2022-08-19T17:36:19.315Z,62.07
2022-08-19T17:38:48.452Z,61.27
2022-08-19T17:41:17.387Z,57.83
2022-08-19T17:43:45.983Z,55.13
2022-08-19T17:46:18.700Z,50.87
2022-08-19T17:48:52.217Z,53.10
2022-08-19T17:51:25.451Z,51.87
2022-08-19T17:53:55.734Z,54.30
2022-08-19T17:56:25.018Z,55.83
2022-08-19T17:58:59.619Z,56.07
2022-08-19T18:01:40.284Z,52.20
2022-08-19T18:04:20.040Z,51.50
2022-08-19T18:06:53.318Z,60.70
2022-08-19T18:09:24.759Z,52.33
2022-08-19T18:11:54.937Z,50.90
2022-08-19T18:14:32.106Z,51.73
2022-08-19T18:17:05.536Z,48.17
2022-08-19T18:19:42.196Z,48.13
2022-08-19T18:22:14.359Z,47.83
2022-08-19T18:24:45.779Z,53.50
2022-08-19T18:27:15.359Z,44.03
2022-08-19T18:29:43.890Z,48.37
2022-08-19T18:32:15.595Z,49.23
2022-08-19T18:34:45.881Z,37.57
2022-08-19T18:37:15.627Z,40.97
2022-08-19T18:40:01.711Z,45.80
2022-08-19T18:42:47.831Z,37.97
2022-08-19T18:45:34.101Z,43.87
2022-08-19T18:48:27.308Z,43.80
2022-08-19T18:50:57.955Z,43.67
2022-08-19T18:53:30.954Z,42.67
2022-08-19T18:56:00.121Z,45.10
2022-08-19T18:58:33.817Z,43.87
2022-08-19T19:01:09.251Z,40.43
2022-08-19T19:03:40.429Z,40.57
2022-08-19T19:06:09.442Z,38.33
2022-08-19T19:08:41.057Z,37.00
2022-08-19T19:11:10.389Z,39.97
2022-08-19T19:13:40.043Z,38.10
2022-08-19T19:16:10.245Z,33.80
2022-08-19T19:18:38.972Z,34.63
2022-08-19T19:21:08.956Z,33.90
2022-08-19T19:23:42.844Z,38.73
2022-08-19T19:26:12.234Z,37.70
2022-08-19T19:28:45.948Z,38.40
2022-08-19T19:31:16.489Z,34.80
2022-08-19T19:33:46.205Z,37.93
2022-08-19T19:36:14.791Z,37.57
2022-08-19T19:38:48.659Z,33.93
2022-08-19T19:41:20.492Z,41.07
2022-08-19T19:44:10.049Z,38.43
2022-08-19T19:46:39.420Z,39.83
2022-08-19T19:49:08.034Z,39.93
2022-08-19T19:51:37.896Z,43.53
2022-08-19T19:54:08.109Z,46.73
2022-08-19T19:56:37.142Z,39.47
2022-08-19T19:59:05.788Z,49.93
2022-08-19T20:01:34.616Z,39.90
2022-08-19T20:04:03.657Z,39.57
2022-08-19T20:06:32.159Z,40.20
2022-08-19T20:09:10.597Z,42.70
2022-08-19T20:11:42.768Z,40.07
2022-08-19T20:14:13.308Z,42.30
2022-08-19T20:16:44.188Z,51.37
2022-08-19T20:19:15.223Z,47.53
2022-08-19T20:21:47.594Z,49.57
2022-08-19T20:24:22.483Z,51.10
2022-08-19T20:26:53.534Z,48.03
2022-08-19T20:29:39.469Z,66.90
2022-08-19T20:32:10.910Z,46.37
2022-08-19T20:34:40.155Z,59.17
2022-08-19T20:37:09.955Z,63.83
2022-08-19T20:39:39.299Z,49.27
2022-08-19T20:42:09.317Z,46.30
2022-08-19T20:44:38.918Z,41.03
2022-08-19T20:47:07.617Z,41.97
2022-08-19T20:49:36.484Z,45.77
2022-08-19T20:52:06.489Z,54.37
2022-08-19T20:54:35.302Z,46.17
2022-08-19T20:57:03.980Z,42.23
2022-08-19T20:59:34.438Z,45.20
2022-08-19T21:02:03.272Z,47.10
2022-08-19T21:04:31.698Z,43.57
2022-08-19T21:07:00.179Z,48.37
2022-08-19T21:09:28.883Z,44.77
2022-08-19T21:11:57.559Z,46.93
2022-08-19T21:14:26.141Z,45.27
2022-08-19T21:16:55.964Z,46.73
2022-08-19T21:19:25.091Z,47.70
2022-08-19T21:21:53.951Z,52.97
2022-08-19T21:24:26.254Z,50.93
2022-08-19T21:26:58.885Z,47.30
2022-08-19T21:29:27.391Z,54.03
2022-08-19T21:31:57.315Z,53.67
2022-08-19T21:34:25.818Z,56.87
2022-08-19T21:36:54.593Z,52.03
2022-08-19T21:39:22.967Z,48.80
2022-08-19T21:41:51.746Z,50.27
2022-08-19T21:44:20.126Z,52.67
2022-08-19T21:46:50.505Z,50.40
2022-08-19T21:49:21.095Z,51.00
2022-08-19T21:51:49.988Z,46.13
2022-08-19T21:54:19.059Z,45.60
2022-08-19T21:56:48.258Z,46.90
2022-08-19T21:59:17.283Z,46.43
2022-08-19T22:01:49.686Z,48.43
2022-08-19T22:04:22.255Z,47.40
2022-08-19T22:06:50.753Z,43.27
2022-08-19T22:09:19.365Z,48.37
2022-08-19T22:11:49.272Z,51.73
2022-08-19T22:14:18.083Z,50.53
2022-08-19T22:16:47.346Z,48.23
2022-08-19T22:19:16.073Z,45.87
2022-08-19T22:21:46.195Z,49.40
2022-08-19T22:24:14.997Z,53.43
2022-08-19T22:26:43.778Z,55.40
2022-08-19T22:29:15.724Z,54.83
2022-08-19T22:31:46.266Z,51.03
2022-08-19T22:34:23.387Z,54.33
2022-08-19T22:36:53.497Z,53.10
2022-08-19T22:39:22.206Z,57.13
2022-08-19T22:41:51.090Z,56.30
2022-08-19T22:44:20.509Z,55.90
2022-08-19T22:46:49.330Z,59.10
2022-08-19T22:49:18.559Z,52.93
2022-08-19T22:52:04.844Z,50.27
2022-08-19T22:54:35.225Z,54.20
2022-08-19T22:57:04.408Z,50.47
2022-08-19T22:59:33.345Z,55.00
2022-08-19T23:02:01.854Z,58.70
2022-08-19T23:04:30.570Z,53.80
2022-08-19T23:06:59.188Z,58.63
2022-08-19T23:09:30.554Z,58.90
2022-08-19T23:12:00.764Z,56.50
2022-08-19T23:14:29.400Z,60.93
2022-08-19T23:16:59.160Z,58.50
2022-08-19T23:19:27.696Z,66.40
2022-08-19T23:21:56.663Z,62.30
2022-08-19T23:24:25.731Z,60.60
2022-08-19T23:27:12.402Z,58.63
2022-08-19T23:29:59.753Z,63.77
2022-08-19T23:32:28.176Z,62.07
2022-08-19T23:34:57.835Z,61.60
2022-08-19T23:37:28.376Z,61.90
2022-08-19T23:39:57.122Z,68.30
2022-08-19T23:42:26.558Z,65.03
2022-08-19T23:45:02.021Z,72.50
2022-08-19T23:47:34.120Z,69.40
2022-08-19T23:50:05.960Z,68.37
2022-08-19T23:52:35.593Z,68.27
2022-08-19T23:55:06.357Z,72.33
2022-08-19T23:57:34.976Z,72.23
